sensor_id;sensor_type;location;lat;lon;timestamp;pressure;altitude;pressure_sealevel;temperature;humidity
3780;BME280;1905;52.482;9.802;2024-01-16T00:00:24;99814.88;;;2.18;98.03
3780;BME280;1905;52.482;9.802;2024-01-16T00:02:52;99819.19;;;2.19;98.46
3780;BME280;1905;52.482;9.802;2024-01-16T00:05:21;99822.63;;;2.21;98.43
3780;BME280;1905;52.482;9.802;2024-01-16T00:07:49;99826.13;;;2.20;98.59
3780;BME280;1905;52.482;9.802;2024-01-16T00:10:18;99827.00;;;2.19;98.92
3780;BME280;1905;52.482;9.802;2024-01-16T00:12:47;99841.75;;;2.20;98.66
3780;BME280;1905;52.482;9.802;2024-01-16T00:15:16;99840.03;;;2.19;98.94
3780;BME280;1905;52.482;9.802;2024-01-16T00:17:43;99845.25;;;2.19;98.25
3780;BME280;1905;52.482;9.802;2024-01-16T00:20:11;99860.00;;;2.20;97.63
3780;BME280;1905;52.482;9.802;2024-01-16T00:23:06;99852.25;;;2.17;98.42
3780;BME280;1905;52.482;9.802;2024-01-16T00:25:34;99869.63;;;2.15;98.44
3780;BME280;1905;52.482;9.802;2024-01-16T00:28:04;99860.91;;;2.17;98.14
3780;BME280;1905;52.482;9.802;2024-01-16T00:30:34;99860.00;;;2.18;97.76
3780;BME280;1905;52.482;9.802;2024-01-16T00:33:02;99870.44;;;2.18;97.90
3780;BME280;1905;52.482;9.802;2024-01-16T00:35:30;99868.72;;;2.17;98.05
3780;BME280;1905;52.482;9.802;2024-01-16T00:37:58;99868.69;;;2.19;98.35
3780;BME280;1905;52.482;9.802;2024-01-16T00:40:28;99870.47;;;2.17;98.33
3780;BME280;1905;52.482;9.802;2024-01-16T00:43:00;99862.66;;;2.17;97.73
3780;BME280;1905;52.482;9.802;2024-01-16T00:45:28;99873.84;;;2.20;97.77
3780;BME280;1905;52.482;9.802;2024-01-16T00:47:56;99873.88;;;2.19;97.87
3780;BME280;1905;52.482;9.802;2024-01-16T00:50:25;99879.97;;;2.18;97.58
3780;BME280;1905;52.482;9.802;2024-01-16T00:52:56;99890.41;;;2.18;97.23
3780;BME280;1905;52.482;9.802;2024-01-16T00:55:24;99882.63;;;2.16;97.92
3780;BME280;1905;52.482;9.802;2024-01-16T00:57:55;99895.66;;;2.15;97.17
3780;BME280;1905;52.482;9.802;2024-01-16T01:00:24;99902.59;;;2.17;97.38
3780;BME280;1905;52.482;9.802;2024-01-16T01:02:52;99902.59;;;2.16;98.08
3780;BME280;1905;52.482;9.802;2024-01-16T01:05:21;99910.47;;;2.13;98.13
3780;BME280;1905;52.482;9.802;2024-01-16T01:07:56;99902.66;;;2.13;97.58
3780;BME280;1905;52.482;9.802;2024-01-16T01:10:24;99906.13;;;2.13;97.98
3780;BME280;1905;52.482;9.802;2024-01-16T01:12:52;99911.38;;;2.12;97.76
3780;BME280;1905;52.482;9.802;2024-01-16T01:15:24;99918.22;;;2.16;97.55
3780;BME280;1905;52.482;9.802;2024-01-16T01:17:52;99924.31;;;2.15;97.49
3780;BME280;1905;52.482;9.802;2024-01-16T01:20:20;99923.44;;;2.16;97.71
3780;BME280;1905;52.482;9.802;2024-01-16T01:22:48;99925.16;;;2.17;97.69
3780;BME280;1905;52.482;9.802;2024-01-16T01:25:16;99925.16;;;2.17;97.54
3780;BME280;1905;52.482;9.802;2024-01-16T01:27:44;99922.56;;;2.17;96.74
3780;BME280;1905;52.482;9.802;2024-01-16T01:30:12;99922.69;;;2.11;96.52
3780;BME280;1905;52.482;9.802;2024-01-16T01:32:41;99924.31;;;2.15;97.40
3780;BME280;1905;52.482;9.802;2024-01-16T01:35:10;99926.09;;;2.13;96.93
3780;BME280;1905;52.482;9.802;2024-01-16T01:37:38;99926.09;;;2.14;96.52
3780;BME280;1905;52.482;9.802;2024-01-16T01:40:07;99929.63;;;2.10;96.40
3780;BME280;1905;52.482;9.802;2024-01-16T01:42:35;99935.63;;;2.14;96.79
3780;BME280;1905;52.482;9.802;2024-01-16T01:45:04;99934.84;;;2.10;96.74
3780;BME280;1905;52.482;9.802;2024-01-16T01:47:33;99940.09;;;2.09;97.25
3780;BME280;1905;52.482;9.802;2024-01-16T01:50:03;99942.69;;;2.09;97.05
3780;BME280;1905;52.482;9.802;2024-01-16T01:52:31;99934.88;;;2.09;96.64
3780;BME280;1905;52.482;9.802;2024-01-16T01:55:00;99945.38;;;2.06;96.79
3780;BME280;1905;52.482;9.802;2024-01-16T01:57:29;99934.13;;;2.04;97.02
3780;BME280;1905;52.482;9.802;2024-01-16T01:59:57;99948.09;;;2.00;96.51
3780;BME280;1905;52.482;9.802;2024-01-16T02:02:38;99938.47;;;2.03;96.81
3780;BME280;1905;52.482;9.802;2024-01-16T02:05:09;99949.75;;;2.04;96.77
3780;BME280;1905;52.482;9.802;2024-01-16T02:07:38;99941.09;;;2.02;97.35
3780;BME280;1905;52.482;9.802;2024-01-16T02:10:06;99949.81;;;2.01;96.64
3780;BME280;1905;52.482;9.802;2024-01-16T02:12:34;99948.97;;;1.99;97.00
3780;BME280;1905;52.482;9.802;2024-01-16T02:15:02;99948.09;;;2.00;97.45
3780;BME280;1905;52.482;9.802;2024-01-16T02:17:30;99945.47;;;2.00;96.92
3780;BME280;1905;52.482;9.802;2024-01-16T02:19:58;99958.56;;;1.97;96.85
3780;BME280;1905;52.482;9.802;2024-01-16T02:22:28;99982.75;;;2.02;97.14
3780;BME280;1905;52.482;9.802;2024-01-16T02:25:00;99978.47;;;1.99;97.25
3780;BME280;1905;52.482;9.802;2024-01-16T02:27:28;99980.25;;;1.97;96.66
3780;BME280;1905;52.482;9.802;2024-01-16T02:29:55;99983.72;;;1.98;96.74
3780;BME280;1905;52.482;9.802;2024-01-16T02:32:23;100001.03;;;1.99;96.90
3780;BME280;1905;52.482;9.802;2024-01-16T02:34:51;99987.13;;;2.00;97.10
3780;BME280;1905;52.482;9.802;2024-01-16T02:37:19;100001.13;;;1.94;97.21
3780;BME280;1905;52.482;9.802;2024-01-16T02:39:47;99996.69;;;1.99;96.94
3780;BME280;1905;52.482;9.802;2024-01-16T02:42:16;100006.28;;;1.97;97.27
3780;BME280;1905;52.482;9.802;2024-01-16T02:44:43;99996.75;;;1.98;96.92
3780;BME280;1905;52.482;9.802;2024-01-16T02:47:11;100001.94;;;1.98;97.47
3780;BME280;1905;52.482;9.802;2024-01-16T02:49:39;99996.75;;;1.98;96.81
3780;BME280;1905;52.482;9.802;2024-01-16T02:52:07;100006.28;;;1.97;97.04
3780;BME280;1905;52.482;9.802;2024-01-16T02:54:35;100010.63;;;1.97;96.09
3780;BME280;1905;52.482;9.802;2024-01-16T02:57:03;100003.78;;;1.91;97.14
3780;BME280;1905;52.482;9.802;2024-01-16T02:59:33;100020.28;;;1.92;96.82
3780;BME280;1905;52.482;9.802;2024-01-16T03:02:00;100022.88;;;1.92;96.82
3780;BME280;1905;52.482;9.802;2024-01-16T03:04:29;100035.06;;;1.90;96.78
3780;BME280;1905;52.482;9.802;2024-01-16T03:06:56;100031.63;;;1.88;97.53
3780;BME280;1905;52.482;9.802;2024-01-16T03:09:24;100027.28;;;1.88;96.55
3780;BME280;1905;52.482;9.802;2024-01-16T03:11:52;100032.47;;;1.90;96.46
3780;BME280;1905;52.482;9.802;2024-01-16T03:14:20;100024.72;;;1.87;96.96
3780;BME280;1905;52.482;9.802;2024-01-16T03:16:49;100041.19;;;1.87;96.86
3780;BME280;1905;52.482;9.802;2024-01-16T03:19:17;100036.81;;;1.88;97.01
3780;BME280;1905;52.482;9.802;2024-01-16T03:21:45;100026.50;;;1.85;96.45
3780;BME280;1905;52.482;9.802;2024-01-16T03:24:12;100028.19;;;1.86;96.70
3780;BME280;1905;52.482;9.802;2024-01-16T03:26:40;100036.06;;;1.84;96.41
3780;BME280;1905;52.482;9.802;2024-01-16T03:29:10;100028.19;;;1.86;96.60
3780;BME280;1905;52.482;9.802;2024-01-16T03:31:40;100028.25;;;1.83;96.15
3780;BME280;1905;52.482;9.802;2024-01-16T03:34:10;100036.94;;;1.83;97.27
3780;BME280;1905;52.482;9.802;2024-01-16T03:36:38;100035.19;;;1.84;97.42
3780;BME280;1905;52.482;9.802;2024-01-16T03:39:05;100039.53;;;1.83;96.25
3780;BME280;1905;52.482;9.802;2024-01-16T03:41:33;100050.00;;;1.80;96.66
3780;BME280;1905;52.482;9.802;2024-01-16T03:44:01;100043.00;;;1.84;96.50
3780;BME280;1905;52.482;9.802;2024-01-16T03:46:28;100042.13;;;1.85;96.64
3780;BME280;1905;52.482;9.802;2024-01-16T03:48:56;100049.94;;;1.83;96.57
3780;BME280;1905;52.482;9.802;2024-01-16T03:51:25;100052.59;;;1.82;96.79
3780;BME280;1905;52.482;9.802;2024-01-16T03:53:53;100058.72;;;1.77;96.88
3780;BME280;1905;52.482;9.802;2024-01-16T03:56:22;100065.59;;;1.82;97.06
3780;BME280;1905;52.482;9.802;2024-01-16T03:58:49;100073.47;;;1.78;96.14
3780;BME280;1905;52.482;9.802;2024-01-16T04:01:17;100066.56;;;1.74;96.35
3780;BME280;1905;52.482;9.802;2024-01-16T04:03:45;100063.19;;;1.69;97.01
3780;BME280;1905;52.482;9.802;2024-01-16T04:06:16;100073.50;;;1.75;96.78
3780;BME280;1905;52.482;9.802;2024-01-16T04:08:45;100082.13;;;1.77;96.75
3780;BME280;1905;52.482;9.802;2024-01-16T04:11:13;100076.09;;;1.75;97.49
3780;BME280;1905;52.482;9.802;2024-01-16T04:13:41;100085.69;;;1.73;97.31
3780;BME280;1905;52.482;9.802;2024-01-16T04:16:11;100084.84;;;1.73;97.45
3780;BME280;1905;52.482;9.802;2024-01-16T04:18:41;100090.00;;;1.76;97.15
3780;BME280;1905;52.482;9.802;2024-01-16T04:21:09;100085.75;;;1.70;96.34
3780;BME280;1905;52.482;9.802;2024-01-16T04:23:37;100084.84;;;1.73;96.73
3780;BME280;1905;52.482;9.802;2024-01-16T04:26:06;100095.25;;;1.71;96.92
3780;BME280;1905;52.482;9.802;2024-01-16T04:28:34;100090.91;;;1.73;97.35
3780;BME280;1905;52.482;9.802;2024-01-16T04:31:04;100089.22;;;1.69;96.92
3780;BME280;1905;52.482;9.802;2024-01-16T04:33:32;100090.91;;;1.73;97.31
3780;BME280;1905;52.482;9.802;2024-01-16T04:35:59;100090.00;;;1.74;96.45
3780;BME280;1905;52.482;9.802;2024-01-16T04:38:27;100090.91;;;1.73;96.34
3780;BME280;1905;52.482;9.802;2024-01-16T04:40:55;100092.59;;;1.74;96.90
3780;BME280;1905;52.482;9.802;2024-01-16T04:43:24;100085.75;;;1.70;96.78
3780;BME280;1905;52.482;9.802;2024-01-16T04:45:52;100085.81;;;1.67;96.23
3780;BME280;1905;52.482;9.802;2024-01-16T04:48:19;100079.72;;;1.67;96.69
3780;BME280;1905;52.482;9.802;2024-01-16T04:50:47;100083.28;;;1.63;96.51
3780;BME280;1905;52.482;9.802;2024-01-16T04:53:15;100092.81;;;1.62;97.47
3780;BME280;1905;52.482;9.802;2024-01-16T04:55:43;100088.41;;;1.67;96.87
3780;BME280;1905;52.482;9.802;2024-01-16T04:58:11;100098.81;;;1.66;96.73
3780;BME280;1905;52.482;9.802;2024-01-16T05:00:40;100093.75;;;1.60;96.60
3780;BME280;1905;52.482;9.802;2024-01-16T05:03:08;100096.25;;;1.64;97.41
3780;BME280;1905;52.482;9.802;2024-01-16T05:05:35;100093.59;;;1.67;96.85
3780;BME280;1905;52.482;9.802;2024-01-16T05:08:03;100095.38;;;1.65;96.53
3780;BME280;1905;52.482;9.802;2024-01-16T05:10:31;100089.28;;;1.66;97.24
3780;BME280;1905;52.482;9.802;2024-01-16T05:12:59;100087.56;;;1.65;96.29
3780;BME280;1905;52.482;9.802;2024-01-16T05:15:26;100095.44;;;1.62;96.83
3780;BME280;1905;52.482;9.802;2024-01-16T05:17:55;100098.94;;;1.60;96.35
3780;BME280;1905;52.482;9.802;2024-01-16T05:20:23;100099.78;;;1.60;96.36
3780;BME280;1905;52.482;9.802;2024-01-16T05:22:51;100087.63;;;1.62;97.30
3780;BME280;1905;52.482;9.802;2024-01-16T05:25:19;100091.06;;;1.64;97.43
3780;BME280;1905;52.482;9.802;2024-01-16T05:27:47;100098.91;;;1.61;96.63
3780;BME280;1905;52.482;9.802;2024-01-16T05:30:16;100096.31;;;1.61;96.41
3780;BME280;1905;52.482;9.802;2024-01-16T05:32:44;100095.44;;;1.61;96.77
3780;BME280;1905;52.482;9.802;2024-01-16T05:35:13;100095.50;;;1.58;96.76
3780;BME280;1905;52.482;9.802;2024-01-16T05:37:41;100091.13;;;1.60;96.23
3780;BME280;1905;52.482;9.802;2024-01-16T05:40:10;100094.69;;;1.54;96.68
3780;BME280;1905;52.482;9.802;2024-01-16T05:42:38;100102.50;;;1.53;96.74
3780;BME280;1905;52.482;9.802;2024-01-16T05:45:06;100099.91;;;1.54;96.67
3780;BME280;1905;52.482;9.802;2024-01-16T05:47:34;100106.94;;;1.49;96.95
3780;BME280;1905;52.482;9.802;2024-01-16T05:50:02;100103.38;;;1.53;96.41
3780;BME280;1905;52.482;9.802;2024-01-16T05:52:32;100100.88;;;1.47;96.44
3780;BME280;1905;52.482;9.802;2024-01-16T05:55:00;100102.66;;;1.47;97.07
3780;BME280;1905;52.482;9.802;2024-01-16T05:57:29;100094.88;;;1.44;96.85
3780;BME280;1905;52.482;9.802;2024-01-16T06:00:00;100100.09;;;1.44;97.58
3780;BME280;1905;52.482;9.802;2024-01-16T06:02:30;100104.44;;;1.42;96.64
3780;BME280;1905;52.482;9.802;2024-01-16T06:05:00;100097.53;;;1.39;96.64
3780;BME280;1905;52.482;9.802;2024-01-16T06:07:29;100102.69;;;1.42;96.92
3780;BME280;1905;52.482;9.802;2024-01-16T06:09:58;100101.91;;;1.37;96.50
3780;BME280;1905;52.482;9.802;2024-01-16T06:12:25;100098.47;;;1.35;96.63
3780;BME280;1905;52.482;9.802;2024-01-16T06:14:53;100107.06;;;1.40;96.61
3780;BME280;1905;52.482;9.802;2024-01-16T06:17:21;100102.72;;;1.41;96.49
3780;BME280;1905;52.482;9.802;2024-01-16T06:19:48;100091.50;;;1.37;96.43
3780;BME280;1905;52.482;9.802;2024-01-16T06:22:16;100098.47;;;1.35;95.92
3780;BME280;1905;52.482;9.802;2024-01-16T06:24:44;100091.50;;;1.37;96.29
3780;BME280;1905;52.482;9.802;2024-01-16T06:27:13;100093.28;;;1.35;96.38
3780;BME280;1905;52.482;9.802;2024-01-16T06:29:45;100087.25;;;1.33;96.80
3780;BME280;1905;52.482;9.802;2024-01-16T06:32:13;100091.56;;;1.34;96.86
3780;BME280;1905;52.482;9.802;2024-01-16T06:34:40;100097.66;;;1.33;96.79
3780;BME280;1905;52.482;9.802;2024-01-16T06:37:08;100104.56;;;1.34;96.55
3780;BME280;1905;52.482;9.802;2024-01-16T06:39:36;100102.84;;;1.33;96.89
3780;BME280;1905;52.482;9.802;2024-01-16T06:42:04;100101.13;;;1.31;97.20
3780;BME280;1905;52.482;9.802;2024-01-16T06:44:38;100099.34;;;1.34;96.61
3780;BME280;1905;52.482;9.802;2024-01-16T06:47:05;100097.72;;;1.29;96.86
3780;BME280;1905;52.482;9.802;2024-01-16T06:49:33;100101.13;;;1.32;96.72
3780;BME280;1905;52.482;9.802;2024-01-16T06:52:01;100103.81;;;1.26;97.02
3780;BME280;1905;52.482;9.802;2024-01-16T06:54:28;100111.50;;;1.34;96.54
3780;BME280;1905;52.482;9.802;2024-01-16T06:56:56;100116.75;;;1.31;96.88
3780;BME280;1905;52.482;9.802;2024-01-16T06:59:24;100117.59;;;1.31;96.16
3780;BME280;1905;52.482;9.802;2024-01-16T07:01:53;100112.44;;;1.28;96.19
3780;BME280;1905;52.482;9.802;2024-01-16T07:04:22;100108.06;;;1.33;96.30
3780;BME280;1905;52.482;9.802;2024-01-16T07:06:50;100108.03;;;1.35;96.94
3780;BME280;1905;52.482;9.802;2024-01-16T07:09:17;100111.50;;;1.35;96.95
3780;BME280;1905;52.482;9.802;2024-01-16T07:11:47;100121.00;;;1.36;96.39
3780;BME280;1905;52.482;9.802;2024-01-16T07:14:15;100127.91;;;1.37;96.78
3780;BME280;1905;52.482;9.802;2024-01-16T07:16:42;100123.63;;;1.35;96.83
3780;BME280;1905;52.482;9.802;2024-01-16T07:19:12;100126.28;;;1.33;96.42
3780;BME280;1905;52.482;9.802;2024-01-16T07:21:39;100126.19;;;1.36;96.74
3780;BME280;1905;52.482;9.802;2024-01-16T07:24:07;100128.78;;;1.38;95.92
3780;BME280;1905;52.482;9.802;2024-01-16T07:26:35;100132.28;;;1.35;96.77
3780;BME280;1905;52.482;9.802;2024-01-16T07:29:02;100137.47;;;1.37;96.87
3780;BME280;1905;52.482;9.802;2024-01-16T07:31:30;100129.66;;;1.37;96.62
3780;BME280;1905;52.482;9.802;2024-01-16T07:33:57;100134.91;;;1.34;96.94
3780;BME280;1905;52.482;9.802;2024-01-16T07:36:26;100136.59;;;1.36;96.33
3780;BME280;1905;52.482;9.802;2024-01-16T07:38:54;100145.31;;;1.35;97.11
3780;BME280;1905;52.482;9.802;2024-01-16T07:41:22;100140.09;;;1.35;96.59
3780;BME280;1905;52.482;9.802;2024-01-16T07:43:50;100136.56;;;1.39;96.94
3780;BME280;1905;52.482;9.802;2024-01-16T07:46:17;100140.13;;;1.32;96.30
3780;BME280;1905;52.482;9.802;2024-01-16T07:48:45;100138.41;;;1.31;96.29
3780;BME280;1905;52.482;9.802;2024-01-16T07:51:13;100139.22;;;1.35;96.46
3780;BME280;1905;52.482;9.802;2024-01-16T07:53:42;100143.56;;;1.34;96.59
3780;BME280;1905;52.482;9.802;2024-01-16T07:56:10;100151.38;;;1.34;96.10
3780;BME280;1905;52.482;9.802;2024-01-16T07:58:37;100140.19;;;1.29;96.37
3780;BME280;1905;52.482;9.802;2024-01-16T08:01:05;100141.91;;;1.30;97.33
3780;BME280;1905;52.482;9.802;2024-01-16T08:03:33;100148.81;;;1.31;96.89
3780;BME280;1905;52.482;9.802;2024-01-16T08:06:02;100145.34;;;1.32;96.56
3780;BME280;1905;52.482;9.802;2024-01-16T08:08:30;100144.41;;;1.36;96.86
3780;BME280;1905;52.482;9.802;2024-01-16T08:11:02;100142.69;;;1.34;95.78
3780;BME280;1905;52.482;9.802;2024-01-16T08:13:29;100138.38;;;1.34;96.78
3780;BME280;1905;52.482;9.802;2024-01-16T08:15:57;100137.53;;;1.31;96.44
3780;BME280;1905;52.482;9.802;2024-01-16T08:18:25;100136.66;;;1.33;96.80
3780;BME280;1905;52.482;9.802;2024-01-16T08:20:53;100147.06;;;1.33;96.23
3780;BME280;1905;52.482;9.802;2024-01-16T08:23:21;100144.47;;;1.33;96.46
3780;BME280;1905;52.482;9.802;2024-01-16T08:25:49;100140.19;;;1.29;96.67
3780;BME280;1905;52.482;9.802;2024-01-16T08:28:20;100146.22;;;1.31;96.34
3780;BME280;1905;52.482;9.802;2024-01-16T08:30:50;100143.63;;;1.31;96.77
3780;BME280;1905;52.482;9.802;2024-01-16T08:33:18;100143.56;;;1.34;97.27
3780;BME280;1905;52.482;9.802;2024-01-16T08:35:59;100152.31;;;1.30;96.63
3780;BME280;1905;52.482;9.802;2024-01-16T08:38:27;100154.91;;;1.30;96.70
3780;BME280;1905;52.482;9.802;2024-01-16T08:40:55;100143.56;;;1.34;96.51
3780;BME280;1905;52.482;9.802;2024-01-16T08:43:24;100154.00;;;1.31;96.66
3780;BME280;1905;52.482;9.802;2024-01-16T08:45:51;100149.69;;;1.33;96.54
3780;BME280;1905;52.482;9.802;2024-01-16T08:48:19;100149.63;;;1.35;96.63
3780;BME280;1905;52.482;9.802;2024-01-16T08:50:47;100153.09;;;1.34;96.63
3780;BME280;1905;52.482;9.802;2024-01-16T08:53:14;100150.53;;;1.32;96.60
3780;BME280;1905;52.482;9.802;2024-01-16T08:55:42;100152.19;;;1.36;96.66
3780;BME280;1905;52.482;9.802;2024-01-16T08:58:10;100160.91;;;1.35;96.22
3780;BME280;1905;52.482;9.802;2024-01-16T09:00:39;100157.41;;;1.36;96.69
3780;BME280;1905;52.482;9.802;2024-01-16T09:03:06;100153.09;;;1.34;96.05
3780;BME280;1905;52.482;9.802;2024-01-16T09:05:35;100154.81;;;1.36;96.36
3780;BME280;1905;52.482;9.802;2024-01-16T09:08:05;100159.09;;;1.40;96.60
3780;BME280;1905;52.482;9.802;2024-01-16T09:10:37;100149.63;;;1.35;96.72
3780;BME280;1905;52.482;9.802;2024-01-16T09:13:05;100156.56;;;1.34;96.75
3780;BME280;1905;52.482;9.802;2024-01-16T09:15:33;100162.56;;;1.39;96.37
3780;BME280;1905;52.482;9.802;2024-01-16T09:18:03;100147.00;;;1.38;95.66
3780;BME280;1905;52.482;9.802;2024-01-16T09:20:31;100154.75;;;1.39;96.48
3780;BME280;1905;52.482;9.802;2024-01-16T09:22:58;100155.63;;;1.41;96.17
3780;BME280;1905;52.482;9.802;2024-01-16T09:25:26;100156.44;;;1.42;96.36
3780;BME280;1905;52.482;9.802;2024-01-16T09:27:56;100154.75;;;1.41;96.86
3780;BME280;1905;52.482;9.802;2024-01-16T09:30:24;100159.97;;;1.41;96.69
3780;BME280;1905;52.482;9.802;2024-01-16T09:32:52;100167.69;;;1.45;95.89
3780;BME280;1905;52.482;9.802;2024-01-16T09:35:21;100159.00;;;1.46;96.56
3780;BME280;1905;52.482;9.802;2024-01-16T09:37:49;100157.22;;;1.48;96.58
3780;BME280;1905;52.482;9.802;2024-01-16T09:40:18;100161.56;;;1.49;96.76
3780;BME280;1905;52.482;9.802;2024-01-16T09:42:45;100160.66;;;1.50;96.45
3780;BME280;1905;52.482;9.802;2024-01-16T09:45:19;100159.78;;;1.50;95.97
3780;BME280;1905;52.482;9.802;2024-01-16T09:47:49;100155.41;;;1.53;95.99
3780;BME280;1905;52.482;9.802;2024-01-16T09:50:18;100166.69;;;1.54;95.86
3780;BME280;1905;52.482;9.802;2024-01-16T09:52:48;100156.28;;;1.52;95.46
3780;BME280;1905;52.482;9.802;2024-01-16T09:55:16;100158.00;;;1.53;96.24
3780;BME280;1905;52.482;9.802;2024-01-16T09:57:45;100169.25;;;1.57;95.78
3780;BME280;1905;52.482;9.802;2024-01-16T10:00:14;100171.88;;;1.54;96.16
3780;BME280;1905;52.482;9.802;2024-01-16T10:02:42;100162.22;;;1.60;96.24
3780;BME280;1905;52.482;9.802;2024-01-16T10:05:11;100164.00;;;1.60;96.46
3780;BME280;1905;52.482;9.802;2024-01-16T10:07:41;100168.28;;;1.62;95.77
3780;BME280;1905;52.482;9.802;2024-01-16T10:10:12;100163.91;;;1.64;95.81
3780;BME280;1905;52.482;9.802;2024-01-16T10:12:44;100165.59;;;1.67;96.17
3780;BME280;1905;52.482;9.802;2024-01-16T10:15:14;100160.38;;;1.68;96.22
3780;BME280;1905;52.482;9.802;2024-01-16T10:17:43;100166.41;;;1.70;96.09
3780;BME280;1905;52.482;9.802;2024-01-16T10:20:11;100158.56;;;1.72;95.74
3780;BME280;1905;52.482;9.802;2024-01-16T10:22:40;100164.66;;;1.72;96.08
3780;BME280;1905;52.482;9.802;2024-01-16T10:25:12;100162.81;;;1.77;95.55
3780;BME280;1905;52.482;9.802;2024-01-16T10:27:44;100169.81;;;1.74;96.64
3780;BME280;1905;52.482;9.802;2024-01-16T10:30:11;100162.00;;;1.74;96.31
3780;BME280;1905;52.482;9.802;2024-01-16T10:32:40;100167.19;;;1.75;96.13
3780;BME280;1905;52.482;9.802;2024-01-16T10:35:10;100161.91;;;1.82;95.20
3780;BME280;1905;52.482;9.802;2024-01-16T10:37:43;100174.00;;;1.84;95.81
3780;BME280;1905;52.482;9.802;2024-01-16T10:40:16;100177.47;;;1.85;95.54
3780;BME280;1905;52.482;9.802;2024-01-16T10:42:46;100171.34;;;1.86;95.45
3780;BME280;1905;52.482;9.802;2024-01-16T10:45:24;100169.63;;;1.86;95.07
3780;BME280;1905;52.482;9.802;2024-01-16T10:48:00;100174.81;;;1.86;95.88
3780;BME280;1905;52.482;9.802;2024-01-16T10:50:30;100166.94;;;1.91;95.09
3780;BME280;1905;52.482;9.802;2024-01-16T10:52:59;100174.72;;;1.92;95.80
3780;BME280;1905;52.482;9.802;2024-01-16T10:55:29;100170.44;;;1.90;96.02
3780;BME280;1905;52.482;9.802;2024-01-16T10:57:58;100177.28;;;1.94;96.07
3780;BME280;1905;52.482;9.802;2024-01-16T11:00:28;100172.13;;;1.91;95.60
3780;BME280;1905;52.482;9.802;2024-01-16T11:02:59;100182.50;;;1.94;95.23
3780;BME280;1905;52.482;9.802;2024-01-16T11:05:31;100177.25;;;1.97;94.80
3780;BME280;1905;52.482;9.802;2024-01-16T11:08:00;100182.41;;;2.00;95.54
3780;BME280;1905;52.482;9.802;2024-01-16T11:10:32;100177.28;;;1.94;95.61
3780;BME280;1905;52.482;9.802;2024-01-16T11:13:01;100176.38;;;1.96;95.23
3780;BME280;1905;52.482;9.802;2024-01-16T11:15:29;100178.94;;;2.01;95.38
3780;BME280;1905;52.482;9.802;2024-01-16T11:17:57;100183.28;;;2.00;95.25
3780;BME280;1905;52.482;9.802;2024-01-16T11:20:26;100184.13;;;2.01;95.75
3780;BME280;1905;52.482;9.802;2024-01-16T11:23:15;100195.34;;;2.04;95.50
3780;BME280;1905;52.482;9.802;2024-01-16T11:25:44;100195.34;;;2.04;95.33
3780;BME280;1905;52.482;9.802;2024-01-16T11:28:12;100190.06;;;2.07;94.97
3780;BME280;1905;52.482;9.802;2024-01-16T11:30:41;100194.41;;;2.07;94.71
3780;BME280;1905;52.482;9.802;2024-01-16T11:33:41;100192.66;;;2.09;95.48
3780;BME280;1905;52.482;9.802;2024-01-16T11:39:23;100185.72;;;2.08;94.96
3780;BME280;1905;52.482;9.802;2024-01-16T11:41:54;100179.59;;;2.12;95.70
3780;BME280;1905;52.482;9.802;2024-01-16T11:44:42;100175.22;;;2.14;95.23
3780;BME280;1905;52.482;9.802;2024-01-16T11:47:16;100178.66;;;2.16;95.29
3780;BME280;1905;52.482;9.802;2024-01-16T11:49:45;100182.13;;;2.15;95.59
3780;BME280;1905;52.482;9.802;2024-01-16T11:52:13;100176.84;;;2.19;95.42
3780;BME280;1905;52.482;9.802;2024-01-16T11:54:41;100180.25;;;2.23;94.69
3780;BME280;1905;52.482;9.802;2024-01-16T11:57:26;100194.13;;;2.23;94.16
3780;BME280;1905;52.482;9.802;2024-01-16T12:00:03;100187.22;;;2.21;94.52
3780;BME280;1905;52.482;9.802;2024-01-16T12:02:49;100196.72;;;2.25;94.58
3780;BME280;1905;52.482;9.802;2024-01-16T12:05:19;100186.34;;;2.22;94.38
3780;BME280;1905;52.482;9.802;2024-01-16T12:07:49;100184.56;;;2.24;94.79
3780;BME280;1905;52.482;9.802;2024-01-16T12:10:20;100187.94;;;2.29;94.57
3780;BME280;1905;52.482;9.802;2024-01-16T12:13:06;100191.47;;;2.28;93.60
3780;BME280;1905;52.482;9.802;2024-01-16T12:16:02;100183.69;;;2.25;94.73
3780;BME280;1905;52.482;9.802;2024-01-16T12:18:36;100182.78;;;2.27;93.90
3780;BME280;1905;52.482;9.802;2024-01-16T12:21:13;100172.31;;;2.29;93.93
3780;BME280;1905;52.482;9.802;2024-01-16T12:23:42;100174.00;;;2.31;94.86
3780;BME280;1905;52.482;9.802;2024-01-16T12:26:24;100178.38;;;2.31;94.21
3780;BME280;1905;52.482;9.802;2024-01-16T12:28:54;100172.25;;;2.33;93.93
3780;BME280;1905;52.482;9.802;2024-01-16T12:31:28;100180.91;;;2.35;94.69
3780;BME280;1905;52.482;9.802;2024-01-16T12:34:04;100180.91;;;2.34;94.32
3780;BME280;1905;52.482;9.802;2024-01-16T12:36:35;100181.75;;;2.36;94.23
3780;BME280;1905;52.482;9.802;2024-01-16T12:39:03;100185.19;;;2.38;94.26
3780;BME280;1905;52.482;9.802;2024-01-16T12:41:34;100178.25;;;2.37;95.28
3780;BME280;1905;52.482;9.802;2024-01-16T12:44:10;100184.28;;;2.40;94.28
3780;BME280;1905;52.482;9.802;2024-01-16T12:46:44;100174.72;;;2.41;94.14
3780;BME280;1905;52.482;9.802;2024-01-16T12:49:12;100159.97;;;2.40;93.60
3780;BME280;1905;52.482;9.802;2024-01-16T12:51:40;100172.97;;;2.42;94.61
3780;BME280;1905;52.482;9.802;2024-01-16T12:54:13;100172.06;;;2.44;93.73
3780;BME280;1905;52.482;9.802;2024-01-16T12:56:41;100161.63;;;2.44;94.03
3780;BME280;1905;52.482;9.802;2024-01-16T12:59:11;100164.28;;;2.41;93.72
3780;BME280;1905;52.482;9.802;2024-01-16T13:01:42;100162.50;;;2.43;94.68
3780;BME280;1905;52.482;9.802;2024-01-16T13:04:11;100153.75;;;2.47;94.09
3780;BME280;1905;52.482;9.802;2024-01-16T13:06:43;100146.81;;;2.46;94.29
3780;BME280;1905;52.482;9.802;2024-01-16T13:09:13;100153.75;;;2.47;93.74
3780;BME280;1905;52.482;9.802;2024-01-16T13:11:49;100157.19;;;2.49;93.12
3780;BME280;1905;52.482;9.802;2024-01-16T13:14:19;100139.81;;;2.48;94.22
3780;BME280;1905;52.482;9.802;2024-01-16T13:16:50;100141.44;;;2.55;93.67
3780;BME280;1905;52.482;9.802;2024-01-16T13:19:19;100146.75;;;2.49;92.97
3780;BME280;1905;52.482;9.802;2024-01-16T13:21:48;100145.03;;;2.48;93.97
3780;BME280;1905;52.482;9.802;2024-01-16T13:24:16;100149.31;;;2.52;94.11
3780;BME280;1905;52.482;9.802;2024-01-16T13:26:49;100148.47;;;2.50;94.40
3780;BME280;1905;52.482;9.802;2024-01-16T13:29:19;100148.47;;;2.50;93.32
3780;BME280;1905;52.482;9.802;2024-01-16T13:31:47;100141.50;;;2.52;93.47
3780;BME280;1905;52.482;9.802;2024-01-16T13:34:16;100132.81;;;2.50;93.77
3780;BME280;1905;52.482;9.802;2024-01-16T13:36:48;100128.53;;;2.48;92.85
3780;BME280;1905;52.482;9.802;2024-01-16T13:39:37;100134.59;;;2.48;93.58